sensor_id;sensor_type;location;lat;lon;timestamp;temperature;humidity
3478;DHT22;37937;61.490;23.506;2022-09-09T00:00:52;3.20;99.90
3478;DHT22;37937;61.490;23.506;2022-09-09T00:03:22;3.20;99.90
3478;DHT22;37937;61.490;23.506;2022-09-09T00:05:56;3.10;99.90
3478;DHT22;37937;61.490;23.506;2022-09-09T00:08:25;3.10;99.90
3478;DHT22;37937;61.490;23.506;2022-09-09T00:11:00;3.10;99.90
3478;DHT22;37937;61.490;23.506;2022-09-09T00:13:30;3.10;99.90
3478;DHT22;37937;61.490;23.506;2022-09-09T00:16:11;3.10;99.90
3478;DHT22;37937;61.490;23.506;2022-09-09T00:21:13;3.10;99.90
3478;DHT22;37937;61.490;23.506;2022-09-09T00:23:44;3.00;99.90
3478;DHT22;37937;61.490;23.506;2022-09-09T00:31:34;3.20;99.90
3478;DHT22;37937;61.490;23.506;2022-09-09T00:34:04;3.10;99.90
3478;DHT22;37937;61.490;23.506;2022-09-09T00:36:30;3.10;99.90
3478;DHT22;37937;61.490;23.506;2022-09-09T00:38:59;3.10;99.90
3478;DHT22;37937;61.490;23.506;2022-09-09T00:44:17;3.10;99.90
3478;DHT22;37937;61.490;23.506;2022-09-09T00:54:44;3.10;99.90
3478;DHT22;37937;61.490;23.506;2022-09-09T00:57:30;3.10;99.90
3478;DHT22;37937;61.490;23.506;2022-09-09T01:02:27;3.00;99.90
3478;DHT22;37937;61.490;23.506;2022-09-09T01:05:16;3.10;99.90
3478;DHT22;37937;61.490;23.506;2022-09-09T01:07:44;3.10;99.90
3478;DHT22;37937;61.490;23.506;2022-09-09T01:15:51;3.00;99.90
3478;DHT22;37937;61.490;23.506;2022-09-09T01:18:20;2.90;99.90
3478;DHT22;37937;61.490;23.506;2022-09-09T01:28:34;3.00;99.90
3478;DHT22;37937;61.490;23.506;2022-09-09T01:31:03;3.00;99.90
3478;DHT22;37937;61.490;23.506;2022-09-09T01:33:29;3.00;99.90
3478;DHT22;37937;61.490;23.506;2022-09-09T01:35:57;2.90;99.90
3478;DHT22;37937;61.490;23.506;2022-09-09T01:38:26;2.90;99.90
3478;DHT22;37937;61.490;23.506;2022-09-09T01:40:53;2.90;99.90
3478;DHT22;37937;61.490;23.506;2022-09-09T01:43:22;2.80;99.90
3478;DHT22;37937;61.490;23.506;2022-09-09T01:45:49;2.90;99.90
3478;DHT22;37937;61.490;23.506;2022-09-09T01:48:16;3.00;99.90
3478;DHT22;37937;61.490;23.506;2022-09-09T01:50:43;3.00;99.90
3478;DHT22;37937;61.490;23.506;2022-09-09T01:53:09;2.90;99.90
3478;DHT22;37937;61.490;23.506;2022-09-09T01:55:39;2.90;99.90
3478;DHT22;37937;61.490;23.506;2022-09-09T01:58:14;2.90;99.90
3478;DHT22;37937;61.490;23.506;2022-09-09T02:01:02;2.90;99.90
3478;DHT22;37937;61.490;23.506;2022-09-09T02:03:31;2.90;99.90
3478;DHT22;37937;61.490;23.506;2022-09-09T02:08:45;2.80;99.90
3478;DHT22;37937;61.490;23.506;2022-09-09T02:11:16;2.80;99.90
3478;DHT22;37937;61.490;23.506;2022-09-09T02:13:46;2.80;99.90
3478;DHT22;37937;61.490;23.506;2022-09-09T02:16:14;2.80;99.90
3478;DHT22;37937;61.490;23.506;2022-09-09T02:18:53;2.80;99.90
3478;DHT22;37937;61.490;23.506;2022-09-09T02:21:21;2.70;99.90
3478;DHT22;37937;61.490;23.506;2022-09-09T02:23:48;2.70;99.90
3478;DHT22;37937;61.490;23.506;2022-09-09T02:26:17;2.70;99.90
3478;DHT22;37937;61.490;23.506;2022-09-09T02:28:45;2.80;99.90
3478;DHT22;37937;61.490;23.506;2022-09-09T02:31:12;2.70;99.90
3478;DHT22;37937;61.490;23.506;2022-09-09T02:33:41;2.70;99.90
3478;DHT22;37937;61.490;23.506;2022-09-09T02:36:08;2.70;99.90
3478;DHT22;37937;61.490;23.506;2022-09-09T02:38:36;2.60;99.90
3478;DHT22;37937;61.490;23.506;2022-09-09T02:41:03;2.70;99.90
3478;DHT22;37937;61.490;23.506;2022-09-09T02:43:33;2.70;99.90
3478;DHT22;37937;61.490;23.506;2022-09-09T02:46:03;2.70;99.90
3478;DHT22;37937;61.490;23.506;2022-09-09T02:48:33;2.70;99.90
3478;DHT22;37937;61.490;23.506;2022-09-09T02:53:53;2.60;99.90
3478;DHT22;37937;61.490;23.506;2022-09-09T02:56:20;2.70;99.90
3478;DHT22;37937;61.490;23.506;2022-09-09T02:58:47;2.60;99.90
3478;DHT22;37937;61.490;23.506;2022-09-09T03:01:14;2.60;99.90
3478;DHT22;37937;61.490;23.506;2022-09-09T03:03:40;2.50;99.90
3478;DHT22;37937;61.490;23.506;2022-09-09T03:06:07;2.50;99.90
3478;DHT22;37937;61.490;23.506;2022-09-09T03:08:33;2.40;99.90
3478;DHT22;37937;61.490;23.506;2022-09-09T03:10:59;2.30;99.90
3478;DHT22;37937;61.490;23.506;2022-09-09T03:13:26;2.30;99.90
3478;DHT22;37937;61.490;23.506;2022-09-09T03:15:52;2.30;99.90
3478;DHT22;37937;61.490;23.506;2022-09-09T03:18:18;2.30;99.90
3478;DHT22;37937;61.490;23.506;2022-09-09T03:20:43;2.30;99.90
3478;DHT22;37937;61.490;23.506;2022-09-09T03:23:12;2.30;99.90
3478;DHT22;37937;61.490;23.506;2022-09-09T03:25:38;2.40;99.90
3478;DHT22;37937;61.490;23.506;2022-09-09T03:28:04;2.30;99.90
3478;DHT22;37937;61.490;23.506;2022-09-09T03:30:30;2.30;99.90
3478;DHT22;37937;61.490;23.506;2022-09-09T03:32:56;2.30;99.90
3478;DHT22;37937;61.490;23.506;2022-09-09T03:35:22;2.30;99.90
3478;DHT22;37937;61.490;23.506;2022-09-09T03:37:48;2.30;99.90
3478;DHT22;37937;61.490;23.506;2022-09-09T03:40:14;2.30;99.90
3478;DHT22;37937;61.490;23.506;2022-09-09T03:42:40;2.30;99.90
3478;DHT22;37937;61.490;23.506;2022-09-09T03:45:07;2.30;99.90
3478;DHT22;37937;61.490;23.506;2022-09-09T03:47:34;2.20;99.90
3478;DHT22;37937;61.490;23.506;2022-09-09T03:50:00;2.30;99.90
3478;DHT22;37937;61.490;23.506;2022-09-09T03:52:26;2.20;99.90
3478;DHT22;37937;61.490;23.506;2022-09-09T03:54:55;2.30;99.90
3478;DHT22;37937;61.490;23.506;2022-09-09T03:57:22;2.30;99.90
3478;DHT22;37937;61.490;23.506;2022-09-09T03:59:48;2.30;99.90
3478;DHT22;37937;61.490;23.506;2022-09-09T04:02:13;2.40;99.90
3478;DHT22;37937;61.490;23.506;2022-09-09T04:04:39;2.50;99.90
3478;DHT22;37937;61.490;23.506;2022-09-09T04:07:05;2.50;99.90
3478;DHT22;37937;61.490;23.506;2022-09-09T04:09:32;2.50;99.90
3478;DHT22;37937;61.490;23.506;2022-09-09T04:11:58;2.50;99.90
3478;DHT22;37937;61.490;23.506;2022-09-09T04:14:23;2.60;99.90
3478;DHT22;37937;61.490;23.506;2022-09-09T04:16:53;2.70;99.90
3478;DHT22;37937;61.490;23.506;2022-09-09T04:19:18;2.70;99.90
3478;DHT22;37937;61.490;23.506;2022-09-09T04:21:44;2.70;99.90
3478;DHT22;37937;61.490;23.506;2022-09-09T04:24:10;2.80;99.90
3478;DHT22;37937;61.490;23.506;2022-09-09T04:26:36;2.80;99.90
3478;DHT22;37937;61.490;23.506;2022-09-09T04:29:03;2.90;99.90
3478;DHT22;37937;61.490;23.506;2022-09-09T04:31:29;2.90;99.90
3478;DHT22;37937;61.490;23.506;2022-09-09T04:33:54;2.90;99.90
3478;DHT22;37937;61.490;23.506;2022-09-09T04:36:20;2.90;99.90
3478;DHT22;37937;61.490;23.506;2022-09-09T04:38:46;3.00;99.90
3478;DHT22;37937;61.490;23.506;2022-09-09T04:41:14;3.00;99.90
3478;DHT22;37937;61.490;23.506;2022-09-09T04:43:39;3.00;99.90
3478;DHT22;37937;61.490;23.506;2022-09-09T04:46:05;3.00;99.90
3478;DHT22;37937;61.490;23.506;2022-09-09T04:48:31;3.00;99.90
3478;DHT22;37937;61.490;23.506;2022-09-09T04:51:00;3.00;99.90
3478;DHT22;37937;61.490;23.506;2022-09-09T04:53:26;3.00;99.90
3478;DHT22;37937;61.490;23.506;2022-09-09T04:56:06;3.10;99.90
3478;DHT22;37937;61.490;23.506;2022-09-09T04:58:32;3.10;99.90
3478;DHT22;37937;61.490;23.506;2022-09-09T05:01:08;3.20;99.90
3478;DHT22;37937;61.490;23.506;2022-09-09T05:03:34;3.30;99.90
3478;DHT22;37937;61.490;23.506;2022-09-09T05:06:07;3.40;99.90
3478;DHT22;37937;61.490;23.506;2022-09-09T05:08:34;3.60;99.90
3478;DHT22;37937;61.490;23.506;2022-09-09T05:10:59;3.70;99.90
3478;DHT22;37937;61.490;23.506;2022-09-09T05:13:28;3.70;99.90
3478;DHT22;37937;61.490;23.506;2022-09-09T05:15:54;3.90;99.90
3478;DHT22;37937;61.490;23.506;2022-09-09T05:18:20;3.90;99.90
3478;DHT22;37937;61.490;23.506;2022-09-09T05:20:47;4.00;99.90
3478;DHT22;37937;61.490;23.506;2022-09-09T05:23:12;4.20;99.90
3478;DHT22;37937;61.490;23.506;2022-09-09T05:25:38;4.30;99.90
3478;DHT22;37937;61.490;23.506;2022-09-09T05:28:05;4.40;99.90
3478;DHT22;37937;61.490;23.506;2022-09-09T05:30:32;4.50;99.90
3478;DHT22;37937;61.490;23.506;2022-09-09T05:32:59;4.60;99.90
3478;DHT22;37937;61.490;23.506;2022-09-09T05:35:25;4.70;99.90
3478;DHT22;37937;61.490;23.506;2022-09-09T05:37:51;4.80;99.90
3478;DHT22;37937;61.490;23.506;2022-09-09T05:40:16;5.00;99.90
3478;DHT22;37937;61.490;23.506;2022-09-09T05:42:42;5.20;99.90
3478;DHT22;37937;61.490;23.506;2022-09-09T05:45:08;5.40;99.90
3478;DHT22;37937;61.490;23.506;2022-09-09T05:47:35;5.50;99.90
3478;DHT22;37937;61.490;23.506;2022-09-09T05:50:01;5.80;99.90
3478;DHT22;37937;61.490;23.506;2022-09-09T05:52:26;5.90;99.90
3478;DHT22;37937;61.490;23.506;2022-09-09T05:54:52;6.20;99.90
3478;DHT22;37937;61.490;23.506;2022-09-09T05:57:20;6.60;99.90
3478;DHT22;37937;61.490;23.506;2022-09-09T05:59:46;6.90;99.90
3478;DHT22;37937;61.490;23.506;2022-09-09T06:02:11;7.20;99.90
3478;DHT22;37937;61.490;23.506;2022-09-09T06:04:38;7.40;99.90
3478;DHT22;37937;61.490;23.506;2022-09-09T06:07:04;7.70;99.90
3478;DHT22;37937;61.490;23.506;2022-09-09T06:09:30;7.90;99.90
3478;DHT22;37937;61.490;23.506;2022-09-09T06:11:56;8.20;99.90
3478;DHT22;37937;61.490;23.506;2022-09-09T06:14:22;8.30;99.90
3478;DHT22;37937;61.490;23.506;2022-09-09T06:16:49;8.40;99.90
3478;DHT22;37937;61.490;23.506;2022-09-09T06:19:15;8.60;99.90
3478;DHT22;37937;61.490;23.506;2022-09-09T06:21:41;8.70;99.90
3478;DHT22;37937;61.490;23.506;2022-09-09T06:24:09;8.70;99.90
3478;DHT22;37937;61.490;23.506;2022-09-09T06:26:36;8.70;99.90
3478;DHT22;37937;61.490;23.506;2022-09-09T06:29:03;8.80;99.90
3478;DHT22;37937;61.490;23.506;2022-09-09T06:31:29;9.10;99.90
3478;DHT22;37937;61.490;23.506;2022-09-09T06:33:56;9.10;99.90
3478;DHT22;37937;61.490;23.506;2022-09-09T06:36:23;9.30;99.90
3478;DHT22;37937;61.490;23.506;2022-09-09T06:38:48;9.30;99.90
3478;DHT22;37937;61.490;23.506;2022-09-09T06:41:15;9.40;99.90
3478;DHT22;37937;61.490;23.506;2022-09-09T06:43:42;9.70;99.90
3478;DHT22;37937;61.490;23.506;2022-09-09T06:46:11;9.80;99.90
3478;DHT22;37937;61.490;23.506;2022-09-09T06:48:40;9.90;99.90
3478;DHT22;37937;61.490;23.506;2022-09-09T06:51:11;9.80;99.90
3478;DHT22;37937;61.490;23.506;2022-09-09T06:53:37;10.20;99.90
3478;DHT22;37937;61.490;23.506;2022-09-09T06:58:48;10.40;99.90
3478;DHT22;37937;61.490;23.506;2022-09-09T07:01:15;10.70;99.90
3478;DHT22;37937;61.490;23.506;2022-09-09T07:03:44;10.90;99.90
3478;DHT22;37937;61.490;23.506;2022-09-09T07:06:20;11.10;99.90
3478;DHT22;37937;61.490;23.506;2022-09-09T07:08:53;11.20;99.90
3478;DHT22;37937;61.490;23.506;2022-09-09T07:11:20;11.20;99.90
3478;DHT22;37937;61.490;23.506;2022-09-09T07:13:47;11.30;99.90
3478;DHT22;37937;61.490;23.506;2022-09-09T07:16:14;11.50;99.90
3478;DHT22;37937;61.490;23.506;2022-09-09T07:18:40;11.50;99.90
3478;DHT22;37937;61.490;23.506;2022-09-09T07:21:06;11.50;99.90
3478;DHT22;37937;61.490;23.506;2022-09-09T07:23:33;11.80;99.90
3478;DHT22;37937;61.490;23.506;2022-09-09T07:26:00;11.80;99.90
3478;DHT22;37937;61.490;23.506;2022-09-09T07:28:26;11.80;99.90
3478;DHT22;37937;61.490;23.506;2022-09-09T07:30:56;11.80;99.90
3478;DHT22;37937;61.490;23.506;2022-09-09T07:33:23;12.10;99.90
3478;DHT22;37937;61.490;23.506;2022-09-09T07:35:49;12.20;99.90
3478;DHT22;37937;61.490;23.506;2022-09-09T07:38:15;12.20;99.90
3478;DHT22;37937;61.490;23.506;2022-09-09T07:40:41;12.20;99.90
3478;DHT22;37937;61.490;23.506;2022-09-09T07:43:06;12.40;99.90
3478;DHT22;37937;61.490;23.506;2022-09-09T07:45:33;12.60;99.90
3478;DHT22;37937;61.490;23.506;2022-09-09T07:47:59;12.80;99.90
3478;DHT22;37937;61.490;23.506;2022-09-09T07:50:25;12.80;99.90
3478;DHT22;37937;61.490;23.506;2022-09-09T07:52:51;12.90;99.90
3478;DHT22;37937;61.490;23.506;2022-09-09T07:55:17;12.80;99.90
3478;DHT22;37937;61.490;23.506;2022-09-09T07:57:43;13.00;99.90
3478;DHT22;37937;61.490;23.506;2022-09-09T08:00:08;13.10;99.90
3478;DHT22;37937;61.490;23.506;2022-09-09T08:02:36;13.10;99.90
3478;DHT22;37937;61.490;23.506;2022-09-09T08:05:02;13.20;99.90
3478;DHT22;37937;61.490;23.506;2022-09-09T08:07:27;13.50;99.90
3478;DHT22;37937;61.490;23.506;2022-09-09T08:09:54;13.30;99.90
3478;DHT22;37937;61.490;23.506;2022-09-09T08:12:21;13.60;99.90
3478;DHT22;37937;61.490;23.506;2022-09-09T08:14:46;13.70;99.90
3478;DHT22;37937;61.490;23.506;2022-09-09T08:17:12;13.50;99.90
3478;DHT22;37937;61.490;23.506;2022-09-09T08:19:38;13.60;99.90
3478;DHT22;37937;61.490;23.506;2022-09-09T08:22:03;13.70;99.90
3478;DHT22;37937;61.490;23.506;2022-09-09T08:24:29;13.70;99.90
3478;DHT22;37937;61.490;23.506;2022-09-09T08:26:55;14.00;99.90
3478;DHT22;37937;61.490;23.506;2022-09-09T08:29:22;13.90;99.90
3478;DHT22;37937;61.490;23.506;2022-09-09T08:31:49;14.10;99.90
3478;DHT22;37937;61.490;23.506;2022-09-09T08:34:14;14.30;99.90
3478;DHT22;37937;61.490;23.506;2022-09-09T08:36:41;14.30;99.90
3478;DHT22;37937;61.490;23.506;2022-09-09T08:39:08;14.30;99.90
3478;DHT22;37937;61.490;23.506;2022-09-09T08:44:20;14.30;99.90
3478;DHT22;37937;61.490;23.506;2022-09-09T08:51:43;14.20;99.90
3478;DHT22;37937;61.490;23.506;2022-09-09T08:54:08;14.30;99.90
3478;DHT22;37937;61.490;23.506;2022-09-09T08:56:35;14.50;99.90
3478;DHT22;37937;61.490;23.506;2022-09-09T08:59:01;14.60;99.90
3478;DHT22;37937;61.490;23.506;2022-09-09T09:06:31;14.40;91.90
3478;DHT22;37937;61.490;23.506;2022-09-09T09:11:50;14.40;90.80
3478;DHT22;37937;61.490;23.506;2022-09-09T09:14:23;14.50;80.40
3478;DHT22;37937;61.490;23.506;2022-09-09T09:16:53;14.70;91.20
3478;DHT22;37937;61.490;23.506;2022-09-09T09:19:20;14.90;91.90
3478;DHT22;37937;61.490;23.506;2022-09-09T09:24:20;15.30;64.90
3478;DHT22;37937;61.490;23.506;2022-09-09T09:26:47;15.90;66.40
3478;DHT22;37937;61.490;23.506;2022-09-09T09:29:17;15.50;61.40
3478;DHT22;37937;61.490;23.506;2022-09-09T09:31:51;15.80;51.80
3478;DHT22;37937;61.490;23.506;2022-09-09T09:34:17;15.80;51.80
3478;DHT22;37937;61.490;23.506;2022-09-09T09:36:52;16.00;39.40
3478;DHT22;37937;61.490;23.506;2022-09-09T09:39:25;15.80;37.50
3478;DHT22;37937;61.490;23.506;2022-09-09T09:41:51;15.70;36.10
3478;DHT22;37937;61.490;23.506;2022-09-09T09:44:22;15.60;38.80
3478;DHT22;37937;61.490;23.506;2022-09-09T09:46:48;15.60;40.60
3478;DHT22;37937;61.490;23.506;2022-09-09T09:49:14;15.40;44.90
3478;DHT22;37937;61.490;23.506;2022-09-09T09:51:40;15.50;44.50
3478;DHT22;37937;61.490;23.506;2022-09-09T09:54:13;15.60;36.50
3478;DHT22;37937;61.490;23.506;2022-09-09T09:56:44;15.70;41.00
3478;DHT22;37937;61.490;23.506;2022-09-09T09:59:24;15.50;30.70
3478;DHT22;37937;61.490;23.506;2022-09-09T10:04:43;15.50;45.00
3478;DHT22;37937;61.490;23.506;2022-09-09T10:07:11;15.40;46.50
3478;DHT22;37937;61.490;23.506;2022-09-09T10:09:36;15.60;46.40
3478;DHT22;37937;61.490;23.506;2022-09-09T10:12:14;16.00;44.80
3478;DHT22;37937;61.490;23.506;2022-09-09T10:23:04;15.80;37.80
3478;DHT22;37937;61.490;23.506;2022-09-09T10:30:56;15.50;31.10
3478;DHT22;37937;61.490;23.506;2022-09-09T10:36:20;15.90;30.00
3478;DHT22;37937;61.490;23.506;2022-09-09T10:39:45;15.80;21.60
3478;DHT22;37937;61.490;23.506;2022-09-09T10:41:42;15.50;18.50
3478;DHT22;37937;61.490;23.506;2022-09-09T10:52:22;15.60;27.90
3478;DHT22;37937;61.490;23.506;2022-09-09T10:59:48;16.40;22.80
3478;DHT22;37937;61.490;23.506;2022-09-09T11:02:17;16.20;16.60
3478;DHT22;37937;61.490;23.506;2022-09-09T11:04:47;15.90;21.20
3478;DHT22;37937;61.490;23.506;2022-09-09T11:07:15;15.70;25.80
3478;DHT22;37937;61.490;23.506;2022-09-09T11:09:47;15.70;22.30
3478;DHT22;37937;61.490;23.506;2022-09-09T11:12:15;15.70;21.00
3478;DHT22;37937;61.490;23.506;2022-09-09T11:14:45;15.80;25.50
3478;DHT22;37937;61.490;23.506;2022-09-09T11:17:15;15.70;20.80
3478;DHT22;37937;61.490;23.506;2022-09-09T11:19:43;15.70;21.30
3478;DHT22;37937;61.490;23.506;2022-09-09T11:22:25;15.90;25.60
3478;DHT22;37937;61.490;23.506;2022-09-09T11:24:56;15.90;25.00
3478;DHT22;37937;61.490;23.506;2022-09-09T11:27:39;15.60;23.80
3478;DHT22;37937;61.490;23.506;2022-09-09T11:35:21;15.80;18.40
3478;DHT22;37937;61.490;23.506;2022-09-09T11:40:36;15.40;17.10
3478;DHT22;37937;61.490;23.506;2022-09-09T11:43:08;15.80;25.10
3478;DHT22;37937;61.490;23.506;2022-09-09T11:45:35;15.60;23.30
3478;DHT22;37937;61.490;23.506;2022-09-09T11:48:01;15.70;17.30
3478;DHT22;37937;61.490;23.506;2022-09-09T11:50:35;15.50;24.70
3478;DHT22;37937;61.490;23.506;2022-09-09T11:53:14;15.40;27.60
3478;DHT22;37937;61.490;23.506;2022-09-09T11:55:41;15.20;25.90
3478;DHT22;37937;61.490;23.506;2022-09-09T12:03:05;15.40;31.60
3478;DHT22;37937;61.490;23.506;2022-09-09T12:05:40;15.20;27.60
3478;DHT22;37937;61.490;23.506;2022-09-09T12:08:09;15.10;33.70
3478;DHT22;37937;61.490;23.506;2022-09-09T12:10:37;14.70;27.00
3478;DHT22;37937;61.490;23.506;2022-09-09T12:15:35;14.80;33.00
3478;DHT22;37937;61.490;23.506;2022-09-09T12:18:14;15.00;35.60
3478;DHT22;37937;61.490;23.506;2022-09-09T12:20:39;15.00;28.10
3478;DHT22;37937;61.490;23.506;2022-09-09T12:33:22;14.40;28.30
3478;DHT22;37937;61.490;23.506;2022-09-09T12:35:54;14.40;24.60
3478;DHT22;37937;61.490;23.506;2022-09-09T12:40:56;14.30;24.30
3478;DHT22;37937;61.490;23.506;2022-09-09T12:43:24;14.20;27.90
3478;DHT22;37937;61.490;23.506;2022-09-09T12:45:50;14.30;34.40
3478;DHT22;37937;61.490;23.506;2022-09-09T12:48:27;14.30;29.20
3478;DHT22;37937;61.490;23.506;2022-09-09T12:50:53;14.40;29.20
3478;DHT22;37937;61.490;23.506;2022-09-09T12:53:25;14.40;29.40
3478;DHT22;37937;61.490;23.506;2022-09-09T12:58:20;14.50;36.80
3478;DHT22;37937;61.490;23.506;2022-09-09T13:00:53;14.30;31.50
3478;DHT22;37937;61.490;23.506;2022-09-09T13:03:23;14.30;30.00
3478;DHT22;37937;61.490;23.506;2022-09-09T13:05:50;14.50;33.50
3478;DHT22;37937;61.490;23.506;2022-09-09T13:08:16;14.60;34.40
3478;DHT22;37937;61.490;23.506;2022-09-09T13:11:01;14.60;33.10
3478;DHT22;37937;61.490;23.506;2022-09-09T13:13:36;14.50;29.10
3478;DHT22;37937;61.490;23.506;2022-09-09T13:16:03;14.60;29.20
3478;DHT22;37937;61.490;23.506;2022-09-09T13:18:34;14.50;26.60
3478;DHT22;37937;61.490;23.506;2022-09-09T13:20:59;14.60;30.70
3478;DHT22;37937;61.490;23.506;2022-09-09T13:23:32;14.60;31.20
3478;DHT22;37937;61.490;23.506;2022-09-09T13:26:01;14.60;26.00
3478;DHT22;37937;61.490;23.506;2022-09-09T13:28:28;14.50;24.00
3478;DHT22;37937;61.490;23.506;2022-09-09T13:31:01;14.50;26.80
3478;DHT22;37937;61.490;23.506;2022-09-09T13:33:34;14.50;23.10
3478;DHT22;37937;61.490;23.506;2022-09-09T13:36:08;14.60;28.40
3478;DHT22;37937;61.490;23.506;2022-09-09T13:38:40;14.60;26.10
3478;DHT22;37937;61.490;23.506;2022-09-09T13:41:21;14.60;20.30
3478;DHT22;37937;61.490;23.506;2022-09-09T13:43:48;14.50;16.40
3478;DHT22;37937;61.490;23.506;2022-09-09T13:46:24;14.70;24.20
3478;DHT22;37937;61.490;23.506;2022-09-09T13:48:54;14.80;22.30
3478;DHT22;37937;61.490;23.506;2022-09-09T13:51:35;14.80;15.90
3478;DHT22;37937;61.490;23.506;2022-09-09T13:54:03;14.70;25.70
3478;DHT22;37937;61.490;23.506;2022-09-09T13:56:32;14.80;26.40
3478;DHT22;37937;61.490;23.506;2022-09-09T13:58:58;14.80;23.80
3478;DHT22;37937;61.490;23.506;2022-09-09T14:01:23;14.80;27.20
3478;DHT22;37937;61.490;23.506;2022-09-09T14:03:49;14.80;28.80
3478;DHT22;37937;61.490;23.506;2022-09-09T14:06:15;14.80;20.70
3478;DHT22;37937;61.490;23.506;2022-09-09T14:08:41;14.80;28.60
3478;DHT22;37937;61.490;23.506;2022-09-09T14:11:08;14.50;22.40
3478;DHT22;37937;61.490;23.506;2022-09-09T14:13:36;14.60;26.40
3478;DHT22;37937;61.490;23.506;2022-09-09T14:16:02;14.40;32.20
3478;DHT22;37937;61.490;23.506;2022-09-09T14:18:28;14.30;31.20
3478;DHT22;37937;61.490;23.506;2022-09-09T14:20:54;14.20;21.20
3478;DHT22;37937;61.490;23.506;2022-09-09T14:23:20;14.30;24.70
3478;DHT22;37937;61.490;23.506;2022-09-09T14:25:47;14.20;19.50
3478;DHT22;37937;61.490;23.506;2022-09-09T14:28:14;14.20;21.60
3478;DHT22;37937;61.490;23.506;2022-09-09T14:30:41;14.00;29.20
3478;DHT22;37937;61.490;23.506;2022-09-09T14:33:07;14.00;31.90
3478;DHT22;37937;61.490;23.506;2022-09-09T14:35:33;13.90;31.90
3478;DHT22;37937;61.490;23.506;2022-09-09T14:37:59;13.80;31.40
3478;DHT22;37937;61.490;23.506;2022-09-09T14:40:26;13.70;36.60
3478;DHT22;37937;61.490;23.506;2022-09-09T14:42:52;13.60;36.40
3478;DHT22;37937;61.490;23.506;2022-09-09T14:45:18;13.50;35.90
3478;DHT22;37937;61.490;23.506;2022-09-09T14:47:44;13.60;36.80
3478;DHT22;37937;61.490;23.506;2022-09-09T14:50:10;13.40;33.30
3478;DHT22;37937;61.490;23.506;2022-09-09T14:52:37;13.40;35.30
3478;DHT22;37937;61.490;23.506;2022-09-09T14:55:03;13.30;37.40
3478;DHT22;37937;61.490;23.506;2022-09-09T14:57:29;13.30;36.60
3478;DHT22;37937;61.490;23.506;2022-09-09T14:59:55;13.30;36.00
3478;DHT22;37937;61.490;23.506;2022-09-09T15:02:22;13.20;30.00
3478;DHT22;37937;61.490;23.506;2022-09-09T15:04:47;13.20;31.80
3478;DHT22;37937;61.490;23.506;2022-09-09T15:07:15;13.10;38.50
3478;DHT22;37937;61.490;23.506;2022-09-09T15:09:42;13.00;38.00
3478;DHT22;37937;61.490;23.506;2022-09-09T15:12:07;13.00;40.80
3478;DHT22;37937;61.490;23.506;2022-09-09T15:14:34;13.00;43.10
3478;DHT22;37937;61.490;23.506;2022-09-09T15:17:00;12.90;47.80
3478;DHT22;37937;61.490;23.506;2022-09-09T15:19:26;12.90;55.50
3478;DHT22;37937;61.490;23.506;2022-09-09T15:21:52;13.00;57.20
3478;DHT22;37937;61.490;23.506;2022-09-09T15:24:17;12.90;65.40
3478;DHT22;37937;61.490;23.506;2022-09-09T15:26:43;12.90;76.00
3478;DHT22;37937;61.490;23.506;2022-09-09T15:29:09;12.80;80.30
3478;DHT22;37937;61.490;23.506;2022-09-09T15:31:35;12.70;80.00
3478;DHT22;37937;61.490;23.506;2022-09-09T15:34:01;12.70;77.80
3478;DHT22;37937;61.490;23.506;2022-09-09T15:38:54;12.60;79.10
3478;DHT22;37937;61.490;23.506;2022-09-09T15:41:21;12.60;76.80
3478;DHT22;37937;61.490;23.506;2022-09-09T15:43:47;12.50;76.70
3478;DHT22;37937;61.490;23.506;2022-09-09T15:48:42;12.40;82.90
3478;DHT22;37937;61.490;23.506;2022-09-09T15:51:09;12.40;84.10
3478;DHT22;37937;61.490;23.506;2022-09-09T15:53:39;12.30;85.90
3478;DHT22;37937;61.490;23.506;2022-09-09T15:56:05;12.30;86.60
3478;DHT22;37937;61.490;23.506;2022-09-09T15:58:32;12.30;90.00
3478;DHT22;37937;61.490;23.506;2022-09-09T16:01:04;12.30;91.80
3478;DHT22;37937;61.490;23.506;2022-09-09T16:03:40;12.10;93.70
3478;DHT22;37937;61.490;23.506;2022-09-09T16:06:12;12.10;94.80
3478;DHT22;37937;61.490;23.506;2022-09-09T16:08:39;12.10;96.40
3478;DHT22;37937;61.490;23.506;2022-09-09T16:11:09;12.00;98.20
3478;DHT22;37937;61.490;23.506;2022-09-09T16:13:35;12.00;98.20
3478;DHT22;37937;61.490;23.506;2022-09-09T16:16:02;11.90;99.90
3478;DHT22;37937;61.490;23.506;2022-09-09T16:18:32;11.80;99.90
3478;DHT22;37937;61.490;23.506;2022-09-09T16:20:58;11.50;99.90
3478;DHT22;37937;61.490;23.506;2022-09-09T16:23:24;11.70;99.90
3478;DHT22;37937;61.490;23.506;2022-09-09T16:25:55;11.60;99.90
3478;DHT22;37937;61.490;23.506;2022-09-09T16:28:21;11.60;99.90
3478;DHT22;37937;61.490;23.506;2022-09-09T16:30:47;11.50;99.90
3478;DHT22;37937;61.490;23.506;2022-09-09T16:33:13;11.40;99.90
3478;DHT22;37937;61.490;23.506;2022-09-09T16:35:42;11.40;99.90
3478;DHT22;37937;61.490;23.506;2022-09-09T16:38:07;11.30;99.90
3478;DHT22;37937;61.490;23.506;2022-09-09T16:40:33;11.30;99.90
3478;DHT22;37937;61.490;23.506;2022-09-09T16:43:00;11.20;99.90
3478;DHT22;37937;61.490;23.506;2022-09-09T16:45:26;11.10;99.90
3478;DHT22;37937;61.490;23.506;2022-09-09T16:47:52;10.90;99.90
3478;DHT22;37937;61.490;23.506;2022-09-09T16:50:18;10.80;99.90
3478;DHT22;37937;61.490;23.506;2022-09-09T16:52:43;10.70;99.90
3478;DHT22;37937;61.490;23.506;2022-09-09T16:55:09;10.70;99.90
3478;DHT22;37937;61.490;23.506;2022-09-09T16:57:35;10.60;99.90
3478;DHT22;37937;61.490;23.506;2022-09-09T17:00:00;10.50;99.90
3478;DHT22;37937;61.490;23.506;2022-09-09T17:02:30;10.40;99.90
3478;DHT22;37937;61.490;23.506;2022-09-09T17:04:55;10.40;99.90
3478;DHT22;37937;61.490;23.506;2022-09-09T17:07:21;10.30;99.90
3478;DHT22;37937;61.490;23.506;2022-09-09T17:09:48;10.20;99.90
3478;DHT22;37937;61.490;23.506;2022-09-09T17:12:14;10.10;99.90
3478;DHT22;37937;61.490;23.506;2022-09-09T17:14:39;10.00;99.90
3478;DHT22;37937;61.490;23.506;2022-09-09T17:17:05;9.90;99.90
3478;DHT22;37937;61.490;23.506;2022-09-09T17:19:31;9.80;99.90
3478;DHT22;37937;61.490;23.506;2022-09-09T17:21:56;9.70;99.90
3478;DHT22;37937;61.490;23.506;2022-09-09T17:24:24;9.70;99.90
3478;DHT22;37937;61.490;23.506;2022-09-09T17:26:51;9.60;99.90
3478;DHT22;37937;61.490;23.506;2022-09-09T17:29:17;9.60;99.90
3478;DHT22;37937;61.490;23.506;2022-09-09T17:31:43;9.50;99.90
3478;DHT22;37937;61.490;23.506;2022-09-09T17:34:09;9.50;99.90
3478;DHT22;37937;61.490;23.506;2022-09-09T17:36:35;9.50;99.90
3478;DHT22;37937;61.490;23.506;2022-09-09T17:39:02;9.40;99.90
3478;DHT22;37937;61.490;23.506;2022-09-09T17:41:32;9.40;99.90
3478;DHT22;37937;61.490;23.506;2022-09-09T17:43:58;9.30;99.90
3478;DHT22;37937;61.490;23.506;2022-09-09T17:46:25;9.30;99.90
3478;DHT22;37937;61.490;23.506;2022-09-09T17:48:52;9.20;99.90
3478;DHT22;37937;61.490;23.506;2022-09-09T17:51:20;9.10;99.90